createdAt,value
2018-11-26T00:00:03.331Z,7.81
2018-11-26T00:02:30.662Z,7.77
2018-11-26T00:04:57.954Z,7.79
2018-11-26T00:07:25.167Z,7.78
2018-11-26T00:09:56.990Z,7.81
2018-11-26T00:12:24.205Z,7.83
2018-11-26T00:14:51.413Z,7.88
2018-11-26T00:17:18.749Z,7.92
2018-11-26T00:19:46.003Z,7.91
2018-11-26T00:22:13.213Z,7.87
2018-11-26T00:24:40.467Z,7.92
2018-11-26T00:27:07.719Z,7.95
2018-11-26T00:29:34.971Z,7.89
2018-11-26T00:32:02.176Z,7.93
2018-11-26T00:34:29.443Z,7.98
2018-11-26T00:36:56.637Z,7.96
2018-11-26T00:39:23.880Z,7.97
2018-11-26T00:41:51.162Z,8.06
2018-11-26T00:44:18.400Z,8.03
2018-11-26T00:46:45.606Z,8.03
2018-11-26T00:49:12.884Z,8.07
2018-11-26T00:51:40.139Z,8.11
2018-11-26T00:54:07.709Z,8.12
2018-11-26T00:56:34.863Z,8.07
2018-11-26T00:59:02.016Z,8.10
2018-11-26T01:01:29.308Z,8.03
2018-11-26T01:03:56.502Z,8.04
2018-11-26T01:06:23.735Z,8.03
2018-11-26T01:08:50.922Z,8.06
2018-11-26T01:11:18.076Z,8.06
2018-11-26T01:13:45.309Z,7.97
2018-11-26T01:16:12.604Z,7.99
2018-11-26T01:18:39.931Z,7.99
2018-11-26T01:21:07.125Z,7.93
2018-11-26T01:23:34.347Z,7.85
2018-11-26T01:26:01.572Z,7.89
2018-11-26T01:28:28.733Z,7.99
2018-11-26T01:30:55.928Z,8.02
2018-11-26T01:33:23.150Z,8.04
2018-11-26T01:35:50.396Z,8.05
2018-11-26T01:38:17.635Z,8.07
2018-11-26T01:40:47.781Z,8.10
2018-11-26T01:43:14.959Z,8.04
2018-11-26T01:45:42.126Z,8.05
2018-11-26T01:48:09.401Z,7.95
2018-11-26T01:50:36.568Z,8.00
2018-11-26T01:53:05.059Z,7.99
2018-11-26T01:55:32.859Z,8.01
2018-11-26T01:58:01.096Z,8.09
2018-11-26T02:00:28.388Z,8.04
2018-11-26T02:02:55.597Z,7.93
2018-11-26T02:05:22.863Z,7.92
2018-11-26T02:07:50.854Z,7.97
2018-11-26T02:10:19.093Z,7.99
2018-11-26T02:12:46.299Z,7.97
2018-11-26T02:15:24.970Z,7.96
2018-11-26T02:17:52.157Z,8.03
2018-11-26T02:20:19.858Z,8.04
2018-11-26T02:22:47.337Z,8.12
2018-11-26T02:25:14.567Z,8.15
2018-11-26T02:27:41.744Z,8.17
2018-11-26T02:30:08.894Z,8.17
2018-11-26T02:32:36.142Z,8.18
2018-11-26T02:35:03.630Z,8.11
2018-11-26T02:37:31.540Z,8.15
2018-11-26T02:39:58.704Z,8.14
2018-11-26T02:42:25.915Z,8.17
2018-11-26T02:44:53.090Z,8.14
2018-11-26T02:47:20.278Z,8.17
2018-11-26T02:49:47.470Z,8.20
2018-11-26T02:52:14.642Z,8.18
2018-11-26T02:54:42.024Z,8.19
2018-11-26T02:57:09.178Z,8.20
2018-11-26T02:59:36.489Z,8.13
2018-11-26T03:02:03.682Z,8.12
2018-11-26T03:04:30.883Z,7.94
2018-11-26T03:06:58.070Z,7.78
2018-11-26T03:09:25.394Z,7.86
2018-11-26T03:11:52.664Z,7.90
2018-11-26T03:14:19.847Z,7.81
2018-11-26T03:16:47.038Z,7.80
2018-11-26T03:19:14.274Z,7.74
2018-11-26T03:21:41.469Z,7.86
2018-11-26T03:24:08.638Z,7.85
2018-11-26T03:26:35.766Z,7.73
2018-11-26T03:29:02.974Z,7.72
2018-11-26T03:31:30.191Z,7.84
2018-11-26T03:33:57.304Z,7.82
2018-11-26T03:36:24.474Z,7.78
2018-11-26T03:38:53.769Z,7.61
2018-11-26T03:41:21.501Z,7.66
2018-11-26T03:43:48.685Z,7.82
2018-11-26T03:46:16.610Z,7.88
2018-11-26T03:48:44.494Z,7.89
2018-11-26T03:51:11.674Z,7.84
2018-11-26T03:53:38.824Z,7.80
2018-11-26T03:56:06.482Z,7.89
2018-11-26T03:58:33.671Z,7.79
2018-11-26T04:01:01.000Z,7.74
2018-11-26T04:03:28.212Z,7.88
2018-11-26T04:05:55.405Z,7.90
2018-11-26T04:08:22.622Z,7.89
2018-11-26T04:10:49.765Z,8.03
2018-11-26T04:13:17.730Z,7.94
2018-11-26T04:15:44.902Z,7.71
2018-11-26T04:18:12.095Z,7.79
2018-11-26T04:20:39.292Z,7.86
2018-11-26T04:23:06.476Z,7.79
2018-11-26T04:25:33.726Z,7.83
2018-11-26T04:28:00.877Z,7.89
2018-11-26T04:30:28.091Z,7.93
2018-11-26T04:32:55.383Z,7.98
2018-11-26T04:35:22.537Z,7.95
2018-11-26T04:37:49.799Z,8.01
2018-11-26T04:40:17.007Z,8.10
2018-11-26T04:42:44.253Z,8.05
2018-11-26T04:45:11.522Z,8.09
2018-11-26T04:47:39.010Z,8.15
2018-11-26T04:50:09.024Z,7.88
2018-11-26T04:52:36.354Z,7.81
2018-11-26T04:55:03.560Z,7.69
2018-11-26T04:57:30.858Z,7.72
2018-11-26T04:59:58.067Z,7.78
2018-11-26T05:02:25.362Z,7.92
2018-11-26T05:04:52.519Z,7.97
2018-11-26T05:07:19.747Z,7.89
2018-11-26T05:09:46.920Z,7.77
2018-11-26T05:12:14.143Z,7.56
2018-11-26T05:14:41.272Z,7.72
2018-11-26T05:17:08.445Z,7.83
2018-11-26T05:19:35.638Z,7.90
2018-11-26T05:22:02.791Z,7.94
2018-11-26T05:24:29.939Z,7.89
2018-11-26T05:26:57.093Z,7.85
2018-11-26T05:29:24.238Z,7.80
2018-11-26T05:31:51.405Z,7.79
2018-11-26T05:34:18.619Z,6.30
2018-11-26T05:36:45.722Z,7.79
2018-11-26T05:39:12.946Z,7.83
2018-11-26T05:41:40.154Z,7.89
2018-11-26T05:44:07.343Z,7.93
2018-11-26T05:46:35.424Z,7.97
2018-11-26T05:49:02.644Z,7.92
2018-11-26T05:51:29.897Z,7.79
2018-11-26T05:53:57.160Z,7.73
2018-11-26T05:56:24.406Z,7.77
2018-11-26T05:58:51.547Z,7.64
2018-11-26T06:01:18.729Z,7.73
2018-11-26T06:03:45.990Z,7.74
2018-11-26T06:06:13.343Z,7.76
2018-11-26T06:08:40.668Z,7.87
2018-11-26T06:11:08.048Z,7.91
2018-11-26T06:13:35.498Z,7.90
2018-11-26T06:16:02.681Z,7.90
2018-11-26T06:18:29.900Z,7.91
2018-11-26T06:20:57.134Z,7.93
2018-11-26T06:23:24.319Z,7.92
2018-11-26T06:25:51.796Z,7.95
2018-11-26T06:28:19.096Z,7.98
2018-11-26T06:30:46.342Z,7.99
2018-11-26T06:33:13.695Z,7.90
2018-11-26T06:35:40.980Z,7.89
2018-11-26T06:38:08.228Z,7.93
2018-11-26T06:40:35.503Z,7.89
2018-11-26T06:43:02.969Z,7.92
2018-11-26T06:45:30.294Z,7.82
2018-11-26T06:47:57.547Z,7.76
2018-11-26T06:50:24.865Z,7.73
2018-11-26T06:52:52.565Z,7.61
2018-11-26T06:55:20.399Z,7.62
2018-11-26T06:57:47.778Z,7.69
2018-11-26T07:00:16.438Z,7.72
2018-11-26T07:02:43.690Z,7.71
2018-11-26T07:05:15.776Z,7.67
2018-11-26T07:07:44.049Z,7.67
2018-11-26T07:10:13.067Z,7.65
2018-11-26T07:12:40.384Z,7.62
2018-11-26T07:15:14.109Z,7.63
2018-11-26T07:17:41.539Z,7.64
2018-11-26T07:20:12.071Z,7.65
2018-11-26T07:22:39.627Z,7.58
2018-11-26T07:25:09.173Z,7.61
2018-11-26T07:27:36.750Z,7.63
2018-11-26T07:30:06.791Z,7.62
2018-11-26T07:32:33.990Z,7.70
2018-11-26T07:35:01.236Z,7.63
2018-11-26T07:37:28.632Z,7.63
2018-11-26T07:39:56.804Z,7.64
2018-11-26T07:42:24.097Z,7.57
2018-11-26T07:44:51.382Z,7.59
2018-11-26T07:47:18.729Z,7.62
2018-11-26T07:49:46.856Z,7.55
2018-11-26T07:52:14.046Z,7.40
2018-11-26T07:54:42.051Z,7.33
2018-11-26T07:57:09.448Z,7.39
2018-11-26T07:59:36.722Z,7.41
2018-11-26T08:02:04.539Z,7.50
2018-11-26T08:04:31.863Z,7.46
2018-11-26T08:06:59.119Z,7.50
2018-11-26T08:09:26.464Z,7.57
2018-11-26T08:11:53.779Z,7.55
2018-11-26T08:14:21.441Z,7.56
2018-11-26T08:16:48.937Z,7.58
2018-11-26T08:19:17.030Z,7.61
2018-11-26T08:21:44.311Z,7.63
2018-11-26T08:24:11.745Z,7.67
2018-11-26T08:26:39.132Z,7.66
2018-11-26T08:29:06.441Z,7.48
2018-11-26T08:31:34.345Z,7.57
2018-11-26T08:34:01.512Z,7.71
2018-11-26T08:36:38.245Z,7.73
2018-11-26T08:39:10.502Z,7.76
2018-11-26T08:41:42.362Z,7.89
2018-11-26T08:44:11.586Z,7.91
2018-11-26T08:46:44.462Z,7.94
2018-11-26T08:49:16.627Z,7.88
2018-11-26T08:51:43.882Z,7.96
2018-11-26T08:54:11.418Z,8.10
2018-11-26T08:56:39.369Z,8.17
2018-11-26T08:59:06.729Z,8.27
2018-11-26T09:01:39.511Z,8.24
2018-11-26T09:04:09.703Z,7.75
2018-11-26T09:06:37.470Z,8.23
2018-11-26T09:09:08.147Z,8.24
2018-11-26T09:11:35.630Z,8.29
2018-11-26T09:14:03.270Z,8.34
2018-11-26T09:16:30.474Z,8.35
2018-11-26T09:18:57.910Z,8.33
2018-11-26T09:21:25.100Z,8.44
2018-11-26T09:23:52.560Z,8.52
2018-11-26T09:26:19.892Z,8.44
2018-11-26T09:28:47.201Z,8.39
2018-11-26T09:31:14.370Z,8.32
2018-11-26T09:33:42.277Z,8.28
2018-11-26T09:36:09.626Z,8.34
2018-11-26T09:38:37.000Z,8.47
2018-11-26T09:41:04.428Z,8.45
2018-11-26T09:43:31.708Z,8.39
2018-11-26T09:45:59.247Z,8.46
2018-11-26T09:48:26.554Z,8.49
2018-11-26T09:50:53.823Z,8.55
2018-11-26T09:53:21.918Z,8.58
2018-11-26T09:55:49.293Z,8.59
2018-11-26T09:58:16.712Z,8.56
2018-11-26T10:00:44.121Z,8.53
2018-11-26T10:03:11.550Z,8.38
2018-11-26T10:05:38.868Z,8.42
2018-11-26T10:08:06.138Z,8.42
2018-11-26T10:10:33.503Z,8.45
2018-11-26T10:13:00.988Z,8.50
2018-11-26T10:15:34.856Z,8.51
2018-11-26T10:18:02.275Z,8.48
2018-11-26T10:20:29.577Z,8.47
2018-11-26T10:22:57.695Z,8.42
2018-11-26T10:25:25.125Z,8.28
2018-11-26T10:27:52.999Z,8.32
2018-11-26T10:30:23.238Z,8.44
2018-11-26T10:32:50.625Z,8.52
2018-11-26T10:35:19.401Z,8.34
2018-11-26T10:37:47.317Z,8.39
2018-11-26T10:40:21.516Z,8.51
2018-11-26T10:42:49.009Z,8.60
2018-11-26T10:45:18.359Z,8.56
2018-11-26T10:47:45.691Z,8.31
2018-11-26T10:50:14.150Z,8.32
2018-11-26T10:52:42.836Z,8.47
2018-11-26T10:55:11.997Z,8.57
2018-11-26T10:57:40.407Z,8.60
2018-11-26T11:00:17.284Z,8.69
2018-11-26T11:02:45.760Z,8.78
2018-11-26T11:05:13.116Z,8.74
2018-11-26T11:07:48.733Z,8.47
2018-11-26T11:10:32.677Z,8.33
2018-11-26T11:13:01.365Z,8.49
2018-11-26T11:15:32.100Z,8.47
2018-11-26T11:17:59.432Z,8.47
2018-11-26T11:20:28.785Z,8.56
2018-11-26T11:22:56.155Z,8.59
2018-11-26T11:25:24.008Z,8.53
2018-11-26T11:27:51.564Z,8.44
2018-11-26T11:30:20.901Z,8.56
2018-11-26T11:32:48.280Z,8.58
2018-11-26T11:35:16.054Z,8.60
2018-11-26T11:37:44.235Z,8.68
2018-11-26T11:40:14.900Z,8.68
2018-11-26T11:42:42.896Z,8.69
2018-11-26T11:45:11.635Z,8.71
2018-11-26T11:47:39.692Z,8.72
2018-11-26T11:50:08.795Z,8.66
2018-11-26T11:52:36.169Z,8.75
2018-11-26T11:55:03.988Z,7.26
2018-11-26T11:57:32.034Z,8.66
2018-11-26T11:59:59.381Z,8.62
2018-11-26T12:02:26.757Z,8.43
2018-11-26T12:04:54.752Z,8.43
2018-11-26T12:07:23.896Z,8.49
2018-11-26T12:09:51.325Z,8.41
2018-11-26T12:12:18.637Z,8.40
2018-11-26T12:14:46.660Z,8.53
2018-11-26T12:17:14.402Z,8.56
2018-11-26T12:19:41.885Z,8.63
2018-11-26T12:22:09.202Z,8.65
2018-11-26T12:24:36.667Z,8.60
2018-11-26T12:27:05.085Z,8.56
2018-11-26T12:29:33.826Z,8.61
2018-11-26T12:32:01.181Z,8.68
2018-11-26T12:34:28.586Z,8.70
2018-11-26T12:36:57.890Z,8.69
2018-11-26T12:39:23.291Z,8.77
2018-11-26T12:41:50.615Z,8.77
2018-11-26T12:44:17.853Z,8.79
2018-11-26T12:46:45.235Z,8.78
2018-11-26T12:49:12.522Z,8.82
2018-11-26T12:51:39.848Z,8.69
2018-11-26T12:54:07.140Z,8.68
2018-11-26T12:56:34.533Z,8.78
2018-11-26T12:59:01.786Z,8.87
2018-11-26T13:01:29.095Z,8.82
2018-11-26T13:03:56.455Z,8.80
2018-11-26T13:06:23.914Z,8.62
2018-11-26T13:08:51.426Z,8.70
2018-11-26T13:11:18.665Z,8.75
2018-11-26T13:13:46.045Z,8.82
2018-11-26T13:16:13.368Z,8.79
2018-11-26T13:18:41.755Z,8.72
2018-11-26T13:21:09.150Z,8.60
2018-11-26T13:23:36.473Z,8.59
2018-11-26T13:26:04.556Z,8.64
2018-11-26T13:28:32.025Z,8.58
2018-11-26T13:30:59.431Z,8.54
2018-11-26T13:33:27.729Z,8.48
2018-11-26T13:35:55.076Z,8.45
2018-11-26T13:38:23.127Z,8.51
2018-11-26T13:40:50.553Z,8.65
2018-11-26T13:43:17.799Z,8.74
2018-11-26T13:45:46.991Z,8.68
2018-11-26T13:48:16.322Z,8.68
2018-11-26T13:50:49.074Z,8.69
2018-11-26T13:53:16.726Z,8.70
2018-11-26T13:55:44.212Z,8.69
2018-11-26T13:58:11.800Z,8.63
2018-11-26T14:00:40.421Z,8.60
2018-11-26T14:03:07.810Z,8.64
2018-11-26T14:05:35.300Z,8.69
2018-11-26T14:08:02.913Z,8.60
2018-11-26T14:10:31.172Z,8.62
2018-11-26T14:13:08.147Z,8.59
2018-11-26T14:15:35.692Z,8.57
2018-11-26T14:18:03.034Z,8.62
2018-11-26T14:20:31.106Z,8.67
2018-11-26T14:22:58.618Z,8.67
2018-11-26T14:25:26.080Z,8.71
2018-11-26T14:27:53.607Z,8.74
2018-11-26T14:30:23.229Z,8.77
2018-11-26T14:32:50.660Z,8.62
2018-11-26T14:35:18.354Z,8.69
2018-11-26T14:37:50.083Z,8.63
2018-11-26T14:40:19.919Z,8.70
2018-11-26T14:42:47.651Z,8.76
2018-11-26T14:45:14.803Z,8.76
2018-11-26T14:47:42.582Z,8.76
2018-11-26T14:50:12.111Z,8.73
2018-11-26T14:52:39.672Z,8.69
2018-11-26T14:55:11.997Z,8.73
2018-11-26T14:57:39.269Z,8.77
2018-11-26T15:00:12.856Z,8.72
2018-11-26T15:02:40.204Z,8.70
2018-11-26T15:05:07.668Z,8.74
2018-11-26T15:07:34.923Z,8.73
2018-11-26T15:10:04.448Z,8.74
2018-11-26T15:12:32.010Z,8.68
2018-11-26T15:14:59.238Z,8.67
2018-11-26T15:17:26.621Z,8.65
2018-11-26T15:19:53.824Z,8.69
2018-11-26T15:22:21.111Z,8.67
2018-11-26T15:24:49.456Z,8.66
2018-11-26T15:27:16.809Z,8.70
2018-11-26T15:29:44.078Z,8.67
2018-11-26T15:32:11.356Z,8.67
2018-11-26T15:34:38.763Z,8.67
2018-11-26T15:37:05.977Z,8.69
2018-11-26T15:39:33.238Z,8.74
2018-11-26T15:42:01.594Z,8.78
2018-11-26T15:44:28.949Z,8.89
2018-11-26T15:46:56.404Z,8.91
2018-11-26T15:49:24.253Z,8.94
2018-11-26T15:51:52.760Z,8.91
2018-11-26T15:54:20.167Z,8.84
2018-11-26T15:56:47.365Z,8.76
2018-11-26T15:59:14.607Z,8.80
2018-11-26T16:01:41.939Z,8.75
2018-11-26T16:04:09.960Z,8.75
2018-11-26T16:06:38.418Z,8.74
2018-11-26T16:09:08.650Z,8.73
2018-11-26T16:11:36.510Z,8.74
2018-11-26T16:14:03.773Z,8.79
2018-11-26T16:16:31.168Z,8.75
2018-11-26T16:18:59.166Z,8.74
2018-11-26T16:21:26.407Z,8.75
2018-11-26T16:23:53.930Z,8.71
2018-11-26T16:26:21.164Z,8.70
2018-11-26T16:28:48.874Z,8.68
2018-11-26T16:31:16.372Z,8.74
2018-11-26T16:33:43.894Z,8.76
2018-11-26T16:36:11.384Z,8.79
2018-11-26T16:38:39.164Z,8.76
2018-11-26T16:41:06.425Z,8.58
2018-11-26T16:43:33.938Z,8.58
2018-11-26T16:46:01.277Z,8.63
2018-11-26T16:48:28.756Z,8.70
2018-11-26T16:50:56.043Z,8.65
2018-11-26T16:53:23.395Z,8.67
2018-11-26T16:55:51.152Z,8.60
2018-11-26T16:58:18.718Z,8.51
2018-11-26T17:00:46.674Z,8.55
2018-11-26T17:03:14.013Z,8.49
2018-11-26T17:05:41.868Z,8.52
2018-11-26T17:08:11.343Z,8.50
2018-11-26T17:10:39.810Z,8.50
2018-11-26T17:13:08.134Z,8.50
2018-11-26T17:15:36.585Z,8.48
2018-11-26T17:18:04.371Z,8.47
2018-11-26T17:20:31.924Z,8.50
2018-11-26T17:22:59.246Z,8.40
2018-11-26T17:25:26.671Z,8.43
2018-11-26T17:27:54.151Z,8.43
2018-11-26T17:30:23.288Z,8.48
2018-11-26T17:32:52.126Z,8.48
2018-11-26T17:35:19.660Z,8.39
2018-11-26T17:37:47.014Z,8.42
2018-11-26T17:40:17.754Z,8.45
2018-11-26T17:42:45.150Z,8.46
2018-11-26T17:45:13.418Z,8.42
2018-11-26T17:47:42.299Z,8.40
2018-11-26T17:50:18.171Z,8.32
2018-11-26T17:52:45.822Z,8.29
2018-11-26T17:55:13.407Z,8.30
2018-11-26T17:57:41.356Z,8.29
2018-11-26T18:00:17.271Z,8.29
2018-11-26T18:02:45.489Z,8.24
2018-11-26T18:05:14.493Z,8.26
2018-11-26T18:07:42.701Z,8.25
2018-11-26T18:10:11.879Z,8.22
2018-11-26T18:12:39.335Z,8.24
2018-11-26T18:15:10.049Z,8.28
2018-11-26T18:17:37.419Z,8.30
2018-11-26T18:20:08.788Z,8.22
2018-11-26T18:22:36.099Z,8.22
2018-11-26T18:25:03.521Z,8.13
2018-11-26T18:27:31.007Z,8.10
2018-11-26T18:29:58.267Z,8.08
2018-11-26T18:32:25.505Z,8.07
2018-11-26T18:34:52.812Z,8.10
2018-11-26T18:37:20.131Z,8.13
2018-11-26T18:39:47.505Z,8.19
2018-11-26T18:42:15.003Z,8.18
2018-11-26T18:44:42.907Z,8.20
2018-11-26T18:47:10.197Z,8.19
2018-11-26T18:49:38.223Z,8.23
2018-11-26T18:52:05.683Z,8.21
2018-11-26T18:54:32.981Z,8.20
2018-11-26T18:57:00.245Z,8.20
2018-11-26T18:59:27.493Z,8.22
2018-11-26T19:01:54.762Z,8.22
2018-11-26T19:04:22.145Z,8.22
2018-11-26T19:06:50.261Z,8.26
2018-11-26T19:09:17.824Z,8.23
2018-11-26T19:11:45.081Z,8.13
2018-11-26T19:14:14.528Z,8.15
2018-11-26T19:16:46.538Z,8.16
2018-11-26T19:19:14.055Z,8.15
2018-11-26T19:21:41.260Z,8.07
2018-11-26T19:24:08.502Z,8.14
2018-11-26T19:26:35.958Z,8.09
2018-11-26T19:29:03.522Z,8.01
2018-11-26T19:31:30.756Z,8.02
2018-11-26T19:33:59.214Z,8.09
2018-11-26T19:36:26.514Z,8.16
2018-11-26T19:38:54.159Z,8.14
2018-11-26T19:41:21.522Z,8.17
2018-11-26T19:43:48.992Z,8.17
2018-11-26T19:46:16.548Z,8.12
2018-11-26T19:48:43.901Z,8.14
2018-11-26T19:51:11.352Z,8.07
2018-11-26T19:53:38.823Z,8.11
2018-11-26T19:56:06.063Z,8.20
2018-11-26T19:58:33.446Z,8.26
2018-11-26T20:01:00.938Z,8.21
2018-11-26T20:03:32.265Z,8.19
2018-11-26T20:06:13.017Z,8.28
2018-11-26T20:08:41.172Z,8.10
2018-11-26T20:11:08.707Z,8.07
2018-11-26T20:13:36.193Z,7.99
2018-11-26T20:16:04.234Z,7.78
2018-11-26T20:18:32.130Z,8.01
2018-11-26T20:20:59.381Z,7.76
2018-11-26T20:23:26.711Z,7.64
2018-11-26T20:25:54.110Z,7.58
2018-11-26T20:28:22.096Z,7.54
2018-11-26T20:30:49.486Z,7.63
2018-11-26T20:33:17.185Z,7.64
2018-11-26T20:35:44.784Z,7.73
2018-11-26T20:38:13.944Z,7.82
2018-11-26T20:40:42.046Z,7.72
2018-11-26T20:43:10.373Z,7.61
2018-11-26T20:45:38.976Z,7.67
2018-11-26T20:48:07.062Z,7.74
2018-11-26T20:50:34.599Z,7.70
2018-11-26T20:53:02.089Z,7.60
2018-11-26T20:55:31.640Z,7.66
2018-11-26T20:57:58.907Z,7.50
2018-11-26T21:00:27.496Z,7.38
2018-11-26T21:03:02.742Z,7.48
2018-11-26T21:05:30.072Z,7.50
2018-11-26T21:07:57.760Z,7.39
2018-11-26T21:10:25.178Z,7.35
2018-11-26T21:12:52.795Z,7.49
2018-11-26T21:15:21.188Z,7.59
2018-11-26T21:17:55.666Z,7.62
2018-11-26T21:20:25.054Z,7.57
2018-11-26T21:22:52.620Z,7.44
2018-11-26T21:25:20.038Z,7.23
2018-11-26T21:27:47.532Z,7.25
2018-11-26T21:30:16.463Z,7.39
2018-11-26T21:32:44.799Z,6.59
2018-11-26T21:35:13.350Z,7.25
2018-11-26T21:37:41.783Z,7.29
2018-11-26T21:40:11.321Z,7.30
2018-11-26T21:42:38.573Z,7.26
2018-11-26T21:45:10.636Z,7.31
2018-11-26T21:47:38.220Z,5.77
2018-11-26T21:50:08.178Z,7.43
2018-11-26T21:52:35.528Z,7.39
2018-11-26T21:55:02.974Z,7.46
2018-11-26T21:57:30.655Z,7.47
2018-11-26T21:59:58.375Z,7.54
2018-11-26T22:02:25.814Z,7.53
2018-11-26T22:04:53.215Z,7.38
2018-11-26T22:07:20.615Z,7.33
2018-11-26T22:09:48.257Z,7.37
2018-11-26T22:12:15.746Z,7.32
2018-11-26T22:14:43.304Z,7.29
2018-11-26T22:17:11.308Z,7.40
2018-11-26T22:19:38.798Z,7.36
2018-11-26T22:22:06.214Z,7.33
2018-11-26T22:24:33.637Z,7.34
2018-11-26T22:27:00.932Z,7.22
2018-11-26T22:29:28.594Z,7.23
2018-11-26T22:31:55.968Z,7.16
2018-11-26T22:34:23.377Z,7.32
2018-11-26T22:36:50.811Z,7.11
2018-11-26T22:39:24.831Z,7.10
2018-11-26T22:41:52.202Z,7.08
2018-11-26T22:44:19.528Z,7.15
2018-11-26T22:46:46.697Z,7.25
2018-11-26T22:49:13.883Z,7.29
2018-11-26T22:51:41.159Z,7.33
2018-11-26T22:54:08.478Z,7.29
2018-11-26T22:56:35.736Z,7.28
2018-11-26T22:59:03.240Z,7.33
2018-11-26T23:01:30.563Z,7.36
2018-11-26T23:03:57.775Z,7.28
2018-11-26T23:06:25.028Z,7.08
2018-11-26T23:08:52.929Z,7.12
2018-11-26T23:11:20.431Z,7.21
2018-11-26T23:13:47.703Z,7.19
2018-11-26T23:16:15.093Z,7.18
2018-11-26T23:18:47.667Z,7.20
2018-11-26T23:21:16.142Z,7.23
2018-11-26T23:23:49.235Z,7.08
2018-11-26T23:26:18.441Z,7.18
2018-11-26T23:28:45.689Z,7.28
2018-11-26T23:31:12.967Z,7.27
2018-11-26T23:33:40.255Z,7.21
2018-11-26T23:36:08.431Z,6.98
2018-11-26T23:38:35.805Z,6.90
2018-11-26T23:41:03.149Z,6.78
2018-11-26T23:43:31.032Z,6.71
2018-11-26T23:45:58.286Z,6.63
2018-11-26T23:48:25.605Z,6.73
2018-11-26T23:50:52.963Z,6.60
2018-11-26T23:53:20.349Z,6.94
2018-11-26T23:55:47.898Z,6.78
2018-11-26T23:58:15.798Z,6.72
